Briefing drone pour Arpajon-sur-cere

Rechercher une autre localisation

Conditions de vol :


Nous sommes le : Jeudi 22 octobre 2020
Il est 00:10 UTC (02:10 LT)

Lever de soleil : 05:48 UTC (07:48 LT)
Coucher de soleil : 17:20 UTC (19:20 LT)

Météo

L'essentiel des conditions de vol

VIGILANCE MÉTÉO FRANCE - Cantal (15)
Vigilance Jaune : Vent violent
CARTE TEMSI
CARTES DES FRONTS
METAR de LFLW
LFLW 220000Z AUTO 13016KT 110V170 9999 FEW022 OVC220 15/11 Q1014

Date d'émission: 22/10/2020
Heure d'émission: 00:00 UTC
Vent: 130° (variable du 110° au 170°) pour 16 KT (30 km/h)
Visibilité horizontale: > 10 km
Plafond :
- Peu de nuages à 2200ft (671m)
- Couvert à 22000ft (6706m)
Température: 15 °C
Point de rosée: 11 °C
Humidité: 77%
Pression (QNH): 1014 hPa
Prévision 24h pour Aurillac (1 km)
Vent : 123° pour 3 KT (10 km/h)
Temperature Maxi: 13 °C
Temperature Min: 13 °C
Humidité : 84%
Condition : Couvert



Warning: count(): Parameter must be an array or an object that implements Countable in /homepages/6/d509196549/htdocs/droneoxygene/briefing.php on line 743
WEBCAM POUR ARPAJON-SUR-CERE

Réglementation

Voler en sécurité

CARTES AERONAUTIQUE 1/500.000
CARTES VAC (LFLW)
SUP AIP




Chargement des AIP...
NOTAM (ARPAJON-SUR-CERE + Terrain à proximité / FIR )




Chargement des NOTAMS...
CONTACT PREFECTURE 15


Avertissement : Les données mises à disposition sont indicatives. Oxygène Drone ne pourra être tenu responsable de dégâts causés aux biens et aux personnes.